AAL407 CYUL-KLAS
Flight info
| Callsign | AAL407 |
|---|---|
| Flight time | 4h 9m |
| Altitude | 38000 |
| Route | YUL2 KESKA DCT BIPKO DCT IPSAK DCT OMEGI DCT RADEN DCT OXASA DCT SSM DCT KP90K DCT KP81G/N0489F400 DCT ONL DCT AVVVS Q114 ZAKRY Q88 CHESZ DCT GGAPP CHOWW4 |
| Aircraft | B789/H-SDE1E2E3FGHIJ2J3J4J5M1RWXY/LB1D1 |
Departure
| Time | 2026-05-04 21:39 |
|---|---|
| Airport | Montreal / Pierre Elliott Trudeau International Airport (CYUL) |
Arrival
| Time | 2026-05-05 01:48 |
|---|---|
| Airport | Harry Reid International Airport (KLAS) |
| Time | Latitude | Longitude | Altitude | Speed | Heading |
|---|---|---|---|---|---|
| 2026-05-04 21:22 | 45.45890 | -73.74484 | 131 ft | 0 kts | 178° |
| 2026-05-04 21:32 | 45.45892 | -73.74485 | 131 ft | 1 kts | 178° |
| 2026-05-04 21:32 | 45.45906 | -73.74485 | 131 ft | 3 kts | 178° |
| 2026-05-04 21:32 | 45.45926 | -73.74486 | 131 ft | 3 kts | 178° |
| 2026-05-04 21:32 | 45.45946 | -73.74488 | 131 ft | 3 kts | 178° |
| 2026-05-04 21:33 | 45.45966 | -73.74489 | 131 ft | 3 kts | 178° |
| 2026-05-04 21:33 | 45.45970 | -73.74489 | 131 ft | 0 kts | 178° |
| 2026-05-04 21:33 | 45.45955 | -73.74479 | 131 ft | 4 kts | 132° |
| 2026-05-04 21:33 | 45.45936 | -73.74403 | 131 ft | 12 kts | 94° |
| 2026-05-04 21:34 | 45.45980 | -73.74262 | 131 ft | 20 kts | 43° |
| 2026-05-04 21:34 | 45.46100 | -73.74104 | 131 ft | 27 kts | 43° |
| 2026-05-04 21:34 | 45.46236 | -73.73923 | 131 ft | 27 kts | 43° |
| 2026-05-04 21:34 | 45.46369 | -73.73745 | 131 ft | 26 kts | 44° |
| 2026-05-04 21:35 | 45.46495 | -73.73573 | 131 ft | 25 kts | 44° |
| 2026-05-04 21:35 | 45.46618 | -73.73410 | 131 ft | 24 kts | 43° |
| 2026-05-04 21:35 | 45.46738 | -73.73252 | 131 ft | 23 kts | 43° |
| 2026-05-04 21:35 | 45.46856 | -73.73095 | 131 ft | 23 kts | 43° |
| 2026-05-04 21:36 | 45.46979 | -73.72954 | 131 ft | 23 kts | 39° |
| 2026-05-04 21:36 | 45.47099 | -73.72808 | 131 ft | 23 kts | 41° |
| 2026-05-04 21:36 | 45.47212 | -73.72655 | 131 ft | 22 kts | 45° |
| 2026-05-04 21:36 | 45.47323 | -73.72501 | 131 ft | 22 kts | 44° |
| 2026-05-04 21:37 | 45.47438 | -73.72355 | 131 ft | 22 kts | 41° |
| 2026-05-04 21:37 | 45.47559 | -73.72199 | 131 ft | 26 kts | 43° |
| 2026-05-04 21:37 | 45.47697 | -73.72009 | 131 ft | 30 kts | 44° |
| 2026-05-04 21:37 | 45.47805 | -73.71799 | 131 ft | 17 kts | 104° |
| 2026-05-04 21:38 | 45.47730 | -73.71679 | 131 ft | 19 kts | 138° |
| 2026-05-04 21:38 | 45.47646 | -73.71682 | 131 ft | 0 kts | 220° |
| 2026-05-04 21:38 | 45.47579 | -73.71764 | 131 ft | 52 kts | 221° |
| 2026-05-04 21:38 | 45.47042 | -73.72459 | 131 ft | 151 kts | 222° |
| 2026-05-04 21:39 | 45.46122 | -73.73681 | 569 ft | 191 kts | 221° |
| 2026-05-04 21:39 | 45.45183 | -73.75017 | 1715 ft | 194 kts | 230° |
| 2026-05-04 21:39 | 45.44750 | -73.76871 | 2585 ft | 203 kts | 267° |
| 2026-05-04 21:39 | 45.45203 | -73.78797 | 3236 ft | 215 kts | 303° |
| 2026-05-04 21:40 | 45.46166 | -73.80508 | 4001 ft | 230 kts | 307° |
| 2026-05-04 21:40 | 45.47126 | -73.82394 | 4769 ft | 245 kts | 305° |
| 2026-05-04 21:40 | 45.48125 | -73.84489 | 5527 ft | 259 kts | 303° |
| 2026-05-04 21:40 | 45.49119 | -73.86651 | 6351 ft | 268 kts | 302° |
| 2026-05-04 21:41 | 45.50139 | -73.88918 | 7203 ft | 275 kts | 302° |
| 2026-05-04 21:41 | 45.51175 | -73.91248 | 8062 ft | 281 kts | 302° |
| 2026-05-04 21:41 | 45.52228 | -73.93631 | 8916 ft | 286 kts | 302° |
| 2026-05-04 21:41 | 45.53295 | -73.96055 | 9763 ft | 291 kts | 302° |
| 2026-05-04 21:42 | 45.54377 | -73.98519 | 10599 ft | 295 kts | 302° |
| 2026-05-04 21:42 | 45.55492 | -74.01062 | 11152 ft | 310 kts | 302° |
| 2026-05-04 21:42 | 45.56671 | -74.03756 | 11603 ft | 327 kts | 301° |
| 2026-05-04 21:42 | 45.57906 | -74.06582 | 12013 ft | 344 kts | 301° |
| 2026-05-04 21:43 | 45.59199 | -74.09543 | 12371 ft | 361 kts | 301° |
| 2026-05-04 21:43 | 45.60557 | -74.12656 | 12725 ft | 376 kts | 302° |
| 2026-05-04 21:43 | 45.62020 | -74.15753 | 13204 ft | 386 kts | 305° |
| 2026-05-04 21:43 | 45.63626 | -74.18943 | 13797 ft | 393 kts | 306° |
| 2026-05-04 21:44 | 45.65246 | -74.22112 | 14427 ft | 399 kts | 306° |
| 2026-05-04 21:44 | 45.66877 | -74.25295 | 15073 ft | 403 kts | 306° |
| 2026-05-04 21:44 | 45.68557 | -74.28583 | 15742 ft | 407 kts | 306° |
| 2026-05-04 21:44 | 45.70169 | -74.31867 | 16390 ft | 411 kts | 302° |
| 2026-05-04 21:45 | 45.71381 | -74.35584 | 17007 ft | 414 kts | 289° |
| 2026-05-04 21:45 | 45.72068 | -74.39613 | 17674 ft | 417 kts | 281° |
| 2026-05-04 21:45 | 45.72559 | -74.43722 | 18264 ft | 421 kts | 278° |
| 2026-05-04 21:45 | 45.72963 | -74.47894 | 18800 ft | 426 kts | 277° |
| 2026-05-04 21:46 | 45.73316 | -74.52137 | 19338 ft | 431 kts | 276° |
| 2026-05-04 21:46 | 45.73640 | -74.56417 | 19898 ft | 434 kts | 276° |
| 2026-05-04 21:46 | 45.73954 | -74.60731 | 20472 ft | 437 kts | 275° |
| 2026-05-04 21:46 | 45.74260 | -74.65038 | 21034 ft | 440 kts | 275° |
| 2026-05-04 21:47 | 45.74569 | -74.69409 | 21569 ft | 444 kts | 275° |
| 2026-05-04 21:47 | 45.74879 | -74.73834 | 22074 ft | 448 kts | 275° |
| 2026-05-04 21:47 | 45.75191 | -74.78286 | 22563 ft | 452 kts | 275° |
| 2026-05-04 21:47 | 45.75523 | -74.82791 | 23056 ft | 456 kts | 277° |
| 2026-05-04 21:48 | 45.76051 | -74.87277 | 23562 ft | 459 kts | 281° |
| 2026-05-04 21:48 | 45.76693 | -74.91782 | 24066 ft | 462 kts | 282° |
| 2026-05-04 21:48 | 45.77371 | -74.96249 | 24558 ft | 465 kts | 283° |
| 2026-05-04 21:48 | 45.78077 | -75.00801 | 25047 ft | 468 kts | 283° |
| 2026-05-04 21:49 | 45.78785 | -75.05364 | 25515 ft | 472 kts | 283° |
| 2026-05-04 21:49 | 45.79497 | -75.09972 | 25970 ft | 475 kts | 283° |
| 2026-05-04 21:49 | 45.80207 | -75.14604 | 26417 ft | 478 kts | 283° |
| 2026-05-04 21:49 | 45.80920 | -75.19290 | 26872 ft | 481 kts | 282° |
| 2026-05-04 21:50 | 45.81632 | -75.23986 | 27323 ft | 484 kts | 282° |
| 2026-05-04 21:50 | 45.82348 | -75.28728 | 27770 ft | 487 kts | 282° |
| 2026-05-04 21:50 | 45.83064 | -75.33482 | 28201 ft | 490 kts | 282° |
| 2026-05-04 21:50 | 45.83785 | -75.38285 | 28624 ft | 493 kts | 282° |
| 2026-05-04 21:51 | 45.84499 | -75.43053 | 29034 ft | 496 kts | 282° |
| 2026-05-04 21:51 | 45.85236 | -75.47987 | 29457 ft | 499 kts | 282° |
| 2026-05-04 21:51 | 45.85950 | -75.52786 | 29870 ft | 502 kts | 282° |
| 2026-05-04 21:51 | 45.86683 | -75.57729 | 30294 ft | 505 kts | 282° |
| 2026-05-04 21:52 | 45.87416 | -75.62684 | 30713 ft | 508 kts | 282° |
| 2026-05-04 21:52 | 45.88149 | -75.67659 | 31119 ft | 511 kts | 282° |
| 2026-05-04 21:52 | 45.88886 | -75.72673 | 31519 ft | 514 kts | 282° |
| 2026-05-04 21:52 | 45.89621 | -75.77696 | 31955 ft | 516 kts | 282° |
| 2026-05-04 21:53 | 45.90349 | -75.82679 | 32463 ft | 516 kts | 282° |
| 2026-05-04 21:53 | 45.91091 | -75.87780 | 33004 ft | 515 kts | 282° |
| 2026-05-04 21:53 | 45.91811 | -75.92752 | 33531 ft | 514 kts | 282° |
| 2026-05-04 21:53 | 45.92540 | -75.97789 | 34065 ft | 513 kts | 282° |
| 2026-05-04 21:54 | 45.93261 | -76.02792 | 34592 ft | 511 kts | 282° |
| 2026-05-04 21:54 | 45.93980 | -76.07818 | 35117 ft | 510 kts | 282° |
| 2026-05-04 21:54 | 45.94689 | -76.12815 | 35637 ft | 509 kts | 282° |
| 2026-05-04 21:54 | 45.95391 | -76.17781 | 36140 ft | 507 kts | 282° |
| 2026-05-04 21:55 | 45.95857 | -76.21082 | 36464 ft | 506 kts | 282° |
| 2026-05-04 21:55 | 45.96553 | -76.26031 | 36924 ft | 504 kts | 282° |
| 2026-05-04 21:55 | 45.97249 | -76.30989 | 37368 ft | 503 kts | 282° |
| 2026-05-04 21:55 | 45.98158 | -76.37489 | 37824 ft | 501 kts | 282° |
| 2026-05-04 21:56 | 45.98620 | -76.40805 | 37945 ft | 500 kts | 282° |
| 2026-05-04 21:56 | 45.99968 | -76.50514 | 38037 ft | 497 kts | 282° |
| 2026-05-04 21:57 | 46.01315 | -76.60275 | 38050 ft | 497 kts | 281° |
| 2026-05-04 21:57 | 46.02651 | -76.70019 | 38059 ft | 497 kts | 281° |
| 2026-05-04 21:58 | 46.03985 | -76.79815 | 38048 ft | 497 kts | 281° |
| 2026-05-04 21:58 | 46.05309 | -76.89600 | 38054 ft | 497 kts | 281° |
| 2026-05-04 21:59 | 46.06613 | -76.99306 | 38058 ft | 497 kts | 281° |
| 2026-05-04 21:59 | 46.07915 | -77.09070 | 38046 ft | 497 kts | 281° |
| 2026-05-04 22:00 | 46.09211 | -77.18847 | 38058 ft | 497 kts | 281° |
| 2026-05-04 22:00 | 46.10500 | -77.28637 | 38053 ft | 497 kts | 281° |
| 2026-05-04 22:01 | 46.11781 | -77.38444 | 38049 ft | 497 kts | 281° |
| 2026-05-04 22:01 | 46.13052 | -77.48237 | 38060 ft | 497 kts | 281° |
| 2026-05-04 22:02 | 46.14309 | -77.57989 | 38048 ft | 497 kts | 281° |
| 2026-05-04 22:02 | 46.15565 | -77.67805 | 38054 ft | 497 kts | 281° |
| 2026-05-04 22:03 | 46.16812 | -77.77617 | 38058 ft | 497 kts | 281° |
| 2026-05-04 22:03 | 46.18052 | -77.87450 | 38047 ft | 497 kts | 281° |
| 2026-05-04 22:04 | 46.19273 | -77.97204 | 38059 ft | 497 kts | 281° |
| 2026-05-04 22:04 | 46.20497 | -78.07047 | 38052 ft | 497 kts | 280° |
| 2026-05-04 22:05 | 46.21710 | -78.16878 | 38050 ft | 497 kts | 280° |
| 2026-05-04 22:05 | 46.22916 | -78.26726 | 38060 ft | 497 kts | 280° |
| 2026-05-04 22:06 | 46.24114 | -78.36574 | 38048 ft | 497 kts | 280° |
| 2026-05-04 22:06 | 46.25293 | -78.46350 | 38055 ft | 497 kts | 280° |
| 2026-05-04 22:07 | 46.26473 | -78.56198 | 38057 ft | 497 kts | 280° |
| 2026-05-04 22:07 | 46.27644 | -78.66051 | 38047 ft | 497 kts | 280° |
| 2026-05-04 22:08 | 46.28806 | -78.75904 | 38059 ft | 497 kts | 280° |
| 2026-05-04 22:08 | 46.29962 | -78.85780 | 38052 ft | 497 kts | 280° |
| 2026-05-04 22:09 | 46.31107 | -78.95642 | 38050 ft | 497 kts | 280° |
| 2026-05-04 22:09 | 46.32243 | -79.05505 | 38060 ft | 497 kts | 279° |
| 2026-05-04 22:10 | 46.33366 | -79.15331 | 38048 ft | 497 kts | 279° |
| 2026-05-04 22:10 | 46.34486 | -79.25208 | 38055 ft | 497 kts | 279° |
| 2026-05-04 22:11 | 46.35574 | -79.35093 | 38056 ft | 497 kts | 277° |
| 2026-05-04 22:11 | 46.36252 | -79.45072 | 38045 ft | 497 kts | 274° |
| 2026-05-04 22:12 | 46.36714 | -79.55060 | 38058 ft | 497 kts | 273° |
| 2026-05-04 22:12 | 46.37049 | -79.65065 | 38054 ft | 497 kts | 272° |
| 2026-05-04 22:13 | 46.37340 | -79.75071 | 38049 ft | 497 kts | 272° |
| 2026-05-04 22:13 | 46.37615 | -79.85024 | 38061 ft | 497 kts | 272° |
| 2026-05-04 22:14 | 46.37885 | -79.95034 | 38049 ft | 497 kts | 272° |
| 2026-05-04 22:14 | 46.38147 | -80.05043 | 38054 ft | 497 kts | 272° |
| 2026-05-04 22:15 | 46.38400 | -80.15059 | 38058 ft | 497 kts | 271° |
| 2026-05-04 22:15 | 46.38645 | -80.25078 | 38047 ft | 497 kts | 271° |
| 2026-05-04 22:16 | 46.38881 | -80.35090 | 38059 ft | 497 kts | 271° |
| 2026-05-04 22:16 | 46.39106 | -80.45027 | 38053 ft | 497 kts | 271° |
| 2026-05-04 22:17 | 46.39325 | -80.55039 | 38049 ft | 497 kts | 271° |
| 2026-05-04 22:17 | 46.39535 | -80.65098 | 38060 ft | 497 kts | 271° |
| 2026-05-04 22:18 | 46.39735 | -80.75066 | 38048 ft | 497 kts | 271° |
| 2026-05-04 22:18 | 46.39927 | -80.85084 | 38055 ft | 497 kts | 271° |
| 2026-05-04 22:19 | 46.40111 | -80.95104 | 38057 ft | 497 kts | 271° |
| 2026-05-04 22:19 | 46.40286 | -81.05137 | 38047 ft | 497 kts | 271° |
| 2026-05-04 22:20 | 46.40451 | -81.15091 | 38059 ft | 497 kts | 271° |
| 2026-05-04 22:20 | 46.40608 | -81.25115 | 38052 ft | 497 kts | 271° |
| 2026-05-04 22:21 | 46.40757 | -81.35148 | 38050 ft | 497 kts | 271° |
| 2026-05-04 22:21 | 46.40897 | -81.45196 | 38060 ft | 497 kts | 271° |
| 2026-05-04 22:22 | 46.41028 | -81.55205 | 38048 ft | 497 kts | 270° |
| 2026-05-04 22:22 | 46.41150 | -81.65219 | 38055 ft | 497 kts | 270° |
| 2026-05-04 22:23 | 46.41263 | -81.75181 | 38057 ft | 497 kts | 270° |
| 2026-05-04 22:23 | 46.41367 | -81.85195 | 38047 ft | 497 kts | 270° |
| 2026-05-04 22:24 | 46.41464 | -81.95235 | 38059 ft | 497 kts | 270° |
| 2026-05-04 22:24 | 46.41551 | -82.05263 | 38051 ft | 497 kts | 270° |
| 2026-05-04 22:25 | 46.41630 | -82.15303 | 38051 ft | 497 kts | 270° |
| 2026-05-04 22:25 | 46.41699 | -82.25280 | 38060 ft | 497 kts | 270° |
| 2026-05-04 22:26 | 46.41760 | -82.35306 | 38047 ft | 497 kts | 270° |
| 2026-05-04 22:26 | 46.41812 | -82.45332 | 38056 ft | 497 kts | 270° |
| 2026-05-04 22:27 | 46.41856 | -82.55340 | 38056 ft | 497 kts | 270° |
| 2026-05-04 22:27 | 46.41890 | -82.65369 | 38047 ft | 497 kts | 270° |
| 2026-05-04 22:28 | 46.41916 | -82.75407 | 38060 ft | 497 kts | 270° |
| 2026-05-04 22:28 | 46.41934 | -82.85385 | 38051 ft | 497 kts | 270° |
| 2026-05-04 22:29 | 46.41942 | -82.95407 | 38051 ft | 497 kts | 270° |
| 2026-05-04 22:29 | 46.41942 | -83.05435 | 38060 ft | 497 kts | 269° |
| 2026-05-04 22:30 | 46.41933 | -83.15485 | 38047 ft | 497 kts | 269° |
| 2026-05-04 22:30 | 46.41915 | -83.25460 | 38057 ft | 497 kts | 269° |
| 2026-05-04 22:31 | 46.41889 | -83.35487 | 38055 ft | 497 kts | 269° |
| 2026-05-04 22:31 | 46.41853 | -83.45516 | 38047 ft | 497 kts | 269° |
| 2026-05-04 22:32 | 46.41809 | -83.55541 | 38060 ft | 497 kts | 269° |
| 2026-05-04 22:32 | 46.41757 | -83.65520 | 38050 ft | 497 kts | 269° |
| 2026-05-04 22:33 | 46.41695 | -83.75541 | 38052 ft | 497 kts | 269° |
| 2026-05-04 22:33 | 46.41625 | -83.85585 | 38059 ft | 497 kts | 269° |
| 2026-05-04 22:34 | 46.41546 | -83.95615 | 38047 ft | 497 kts | 269° |
| 2026-05-04 22:34 | 46.41458 | -84.05573 | 38058 ft | 497 kts | 269° |
| 2026-05-04 22:35 | 46.41362 | -84.15614 | 38054 ft | 497 kts | 269° |
| 2026-05-04 22:35 | 46.40862 | -84.25587 | 38053 ft | 497 kts | 261° |
| 2026-05-04 22:36 | 46.39585 | -84.35461 | 38054 ft | 497 kts | 258° |
| 2026-05-04 22:36 | 46.38036 | -84.45221 | 38048 ft | 497 kts | 255° |
| 2026-05-04 22:37 | 46.36129 | -84.54790 | 38059 ft | 497 kts | 252° |
| 2026-05-04 22:37 | 46.34047 | -84.64348 | 38049 ft | 497 kts | 252° |
| 2026-05-04 22:38 | 46.31928 | -84.73879 | 38053 ft | 497 kts | 252° |
| 2026-05-04 22:38 | 46.29800 | -84.83408 | 38059 ft | 497 kts | 252° |
| 2026-05-04 22:39 | 46.27668 | -84.92927 | 38047 ft | 497 kts | 252° |
| 2026-05-04 22:39 | 46.25544 | -85.02375 | 38058 ft | 497 kts | 252° |
| 2026-05-04 22:40 | 46.23384 | -85.11942 | 38054 ft | 497 kts | 251° |
| 2026-05-04 22:40 | 46.21241 | -85.21388 | 38048 ft | 497 kts | 251° |
| 2026-05-04 22:41 | 46.19079 | -85.30876 | 38060 ft | 497 kts | 251° |
| 2026-05-04 22:41 | 46.16910 | -85.40357 | 38049 ft | 497 kts | 251° |
| 2026-05-04 22:42 | 46.14733 | -85.49826 | 38053 ft | 497 kts | 251° |
| 2026-05-04 22:42 | 46.12915 | -85.57703 | 38060 ft | 497 kts | 251° |
| 2026-05-04 22:43 | 46.10726 | -85.67153 | 38047 ft | 497 kts | 251° |
| 2026-05-04 22:43 | 46.08524 | -85.76616 | 38056 ft | 497 kts | 251° |
| 2026-05-04 22:44 | 46.06316 | -85.86063 | 38056 ft | 497 kts | 251° |
| 2026-05-04 22:44 | 46.04110 | -85.95459 | 38047 ft | 497 kts | 251° |
| 2026-05-04 22:45 | 46.01883 | -86.04905 | 38060 ft | 497 kts | 251° |
| 2026-05-04 22:45 | 45.98533 | -86.19040 | 38047 ft | 497 kts | 251° |
| 2026-05-04 22:46 | 45.96302 | -86.28405 | 38059 ft | 497 kts | 251° |
| 2026-05-04 22:46 | 45.94051 | -86.37811 | 38052 ft | 497 kts | 251° |
| 2026-05-04 22:47 | 45.91794 | -86.47206 | 38050 ft | 497 kts | 251° |
| 2026-05-04 22:47 | 45.89527 | -86.56601 | 38060 ft | 497 kts | 250° |
| 2026-05-04 22:48 | 45.87257 | -86.65969 | 38048 ft | 497 kts | 250° |
| 2026-05-04 22:48 | 45.84969 | -86.75371 | 38055 ft | 497 kts | 250° |
| 2026-05-04 22:49 | 45.82696 | -86.84671 | 38057 ft | 498 kts | 250° |
| 2026-05-04 22:49 | 45.80399 | -86.94032 | 38047 ft | 497 kts | 250° |
| 2026-05-04 22:50 | 45.78095 | -87.03385 | 38059 ft | 497 kts | 250° |
| 2026-05-04 22:50 | 45.75782 | -87.12734 | 38052 ft | 497 kts | 250° |
| 2026-05-04 22:51 | 45.73473 | -87.22026 | 38050 ft | 497 kts | 250° |
| 2026-05-04 22:51 | 45.71146 | -87.31357 | 38060 ft | 497 kts | 250° |
| 2026-05-04 22:52 | 45.68809 | -87.40685 | 38047 ft | 497 kts | 250° |
| 2026-05-04 22:52 | 45.66472 | -87.49979 | 38056 ft | 497 kts | 250° |
| 2026-05-04 22:53 | 45.64121 | -87.59288 | 38056 ft | 498 kts | 250° |
| 2026-05-04 22:53 | 45.61778 | -87.68527 | 38047 ft | 497 kts | 250° |
| 2026-05-04 22:54 | 45.59414 | -87.77815 | 38060 ft | 497 kts | 250° |
| 2026-05-04 22:54 | 45.57041 | -87.87101 | 38051 ft | 497 kts | 250° |
| 2026-05-04 22:55 | 45.54661 | -87.96375 | 38051 ft | 497 kts | 250° |
| 2026-05-04 22:55 | 45.52273 | -88.05642 | 38060 ft | 497 kts | 249° |
| 2026-05-04 22:56 | 45.49877 | -88.14906 | 38047 ft | 497 kts | 249° |
| 2026-05-04 22:56 | 45.47482 | -88.24130 | 38056 ft | 497 kts | 249° |
| 2026-05-04 22:57 | 45.45068 | -88.33389 | 38056 ft | 498 kts | 249° |
| 2026-05-04 22:57 | 45.42668 | -88.42555 | 38047 ft | 497 kts | 249° |
| 2026-05-04 22:58 | 45.40244 | -88.51782 | 38060 ft | 497 kts | 249° |
| 2026-05-04 22:58 | 45.37811 | -88.61005 | 38051 ft | 497 kts | 249° |
| 2026-05-04 22:59 | 45.35371 | -88.70216 | 38051 ft | 497 kts | 249° |
| 2026-05-04 22:59 | 45.32924 | -88.79421 | 38060 ft | 497 kts | 249° |
| 2026-05-04 23:00 | 45.30485 | -88.88561 | 38047 ft | 497 kts | 249° |
| 2026-05-04 23:00 | 45.28019 | -88.97761 | 38057 ft | 497 kts | 249° |
| 2026-05-04 23:01 | 45.25548 | -89.06951 | 38055 ft | 498 kts | 249° |
| 2026-05-04 23:01 | 45.23071 | -89.16125 | 38047 ft | 497 kts | 249° |
| 2026-05-04 23:02 | 45.20603 | -89.25227 | 38060 ft | 497 kts | 249° |
| 2026-05-04 23:02 | 45.18112 | -89.34385 | 38050 ft | 497 kts | 249° |
| 2026-05-04 23:03 | 45.15617 | -89.43519 | 38052 ft | 497 kts | 249° |
| 2026-05-04 23:03 | 45.13110 | -89.52665 | 38059 ft | 498 kts | 248° |
| 2026-05-04 23:04 | 45.10599 | -89.61790 | 38047 ft | 497 kts | 248° |
| 2026-05-04 23:04 | 45.08078 | -89.70916 | 38057 ft | 497 kts | 248° |
| 2026-05-04 23:05 | 45.05565 | -89.79980 | 38055 ft | 498 kts | 248° |
| 2026-05-04 23:05 | 45.03033 | -89.89079 | 38048 ft | 497 kts | 248° |
| 2026-05-04 23:06 | 45.00415 | -89.98143 | 38062 ft | 497 kts | 246° |
| 2026-05-04 23:06 | 44.97498 | -90.07014 | 38049 ft | 497 kts | 244° |
| 2026-05-04 23:07 | 44.94463 | -90.15796 | 38053 ft | 497 kts | 243° |
| 2026-05-04 23:07 | 44.91390 | -90.24550 | 38059 ft | 498 kts | 243° |
| 2026-05-04 23:08 | 44.88327 | -90.33242 | 38047 ft | 497 kts | 243° |
| 2026-05-04 23:08 | 44.85235 | -90.41991 | 38058 ft | 497 kts | 243° |
| 2026-05-04 23:09 | 44.82145 | -90.50709 | 38054 ft | 498 kts | 243° |
| 2026-05-04 23:09 | 44.79053 | -90.59404 | 38048 ft | 497 kts | 243° |
| 2026-05-04 23:10 | 44.75948 | -90.68110 | 38060 ft | 497 kts | 243° |
| 2026-05-04 23:10 | 44.72834 | -90.76812 | 38049 ft | 497 kts | 243° |
| 2026-05-04 23:11 | 44.69716 | -90.85499 | 38053 ft | 497 kts | 243° |
| 2026-05-04 23:11 | 44.66606 | -90.94136 | 38059 ft | 498 kts | 243° |
| 2026-05-04 23:12 | 44.63472 | -91.02810 | 38047 ft | 497 kts | 243° |
| 2026-05-04 23:12 | 44.60334 | -91.11471 | 38058 ft | 497 kts | 243° |
| 2026-05-04 23:13 | 44.57186 | -91.20130 | 38053 ft | 498 kts | 243° |
| 2026-05-04 23:13 | 44.54054 | -91.28718 | 38049 ft | 497 kts | 243° |
| 2026-05-04 23:14 | 44.50900 | -91.37339 | 38060 ft | 497 kts | 243° |
| 2026-05-04 23:14 | 44.47739 | -91.45954 | 38049 ft | 497 kts | 242° |
| 2026-05-04 23:15 | 44.44559 | -91.54589 | 38054 ft | 497 kts | 242° |
| 2026-05-04 23:15 | 44.41388 | -91.63176 | 38058 ft | 498 kts | 242° |
| 2026-05-04 23:16 | 44.38200 | -91.71784 | 38047 ft | 497 kts | 242° |
| 2026-05-04 23:16 | 44.35032 | -91.80309 | 38059 ft | 497 kts | 242° |
| 2026-05-04 23:17 | 44.31835 | -91.88887 | 38053 ft | 498 kts | 242° |
| 2026-05-04 23:17 | 44.28633 | -91.97449 | 38049 ft | 497 kts | 242° |
| 2026-05-04 23:18 | 44.25425 | -92.06004 | 38060 ft | 498 kts | 242° |
| 2026-05-04 23:18 | 44.22208 | -92.14554 | 38048 ft | 497 kts | 242° |
| 2026-05-04 23:19 | 44.18985 | -92.23097 | 38055 ft | 497 kts | 242° |
| 2026-05-04 23:19 | 44.15754 | -92.31632 | 38057 ft | 498 kts | 242° |
| 2026-05-04 23:20 | 44.12545 | -92.40084 | 38047 ft | 497 kts | 242° |
| 2026-05-04 23:20 | 44.09302 | -92.48600 | 38059 ft | 497 kts | 242° |
| 2026-05-04 23:21 | 44.06054 | -92.57100 | 38052 ft | 497 kts | 242° |
| 2026-05-04 23:21 | 44.02800 | -92.65594 | 38050 ft | 497 kts | 242° |
| 2026-05-04 23:22 | 43.99543 | -92.74068 | 38060 ft | 498 kts | 242° |
| 2026-05-04 23:22 | 43.96274 | -92.82549 | 38048 ft | 497 kts | 242° |
| 2026-05-04 23:23 | 43.93020 | -92.90965 | 38055 ft | 497 kts | 241° |
| 2026-05-04 23:23 | 43.89743 | -92.99414 | 38057 ft | 498 kts | 241° |
| 2026-05-04 23:24 | 43.86451 | -93.07880 | 38047 ft | 497 kts | 241° |
| 2026-05-04 23:24 | 43.83159 | -93.16318 | 38060 ft | 497 kts | 241° |
| 2026-05-04 23:25 | 43.79887 | -93.24680 | 38051 ft | 498 kts | 241° |
| 2026-05-04 23:25 | 43.76582 | -93.33101 | 38051 ft | 497 kts | 241° |
| 2026-05-04 23:26 | 43.73270 | -93.41514 | 38060 ft | 498 kts | 241° |
| 2026-05-04 23:26 | 43.69957 | -93.49907 | 38047 ft | 497 kts | 241° |
| 2026-05-04 23:27 | 43.66634 | -93.58298 | 38056 ft | 497 kts | 241° |
| 2026-05-04 23:27 | 43.63304 | -93.66683 | 38056 ft | 498 kts | 241° |
| 2026-05-04 23:28 | 43.59988 | -93.75008 | 38047 ft | 497 kts | 241° |
| 2026-05-04 23:28 | 43.56650 | -93.83364 | 38060 ft | 497 kts | 241° |
| 2026-05-04 23:29 | 43.53301 | -93.91724 | 38051 ft | 498 kts | 240° |
| 2026-05-04 23:29 | 43.50339 | -94.00330 | 38055 ft | 497 kts | 250° |
| 2026-05-04 23:30 | 43.48546 | -94.07861 | 38057 ft | 498 kts | 253° |
| 2026-05-04 23:30 | 43.46363 | -94.18533 | 38047 ft | 497 kts | 255° |
| 2026-05-04 23:31 | 43.44552 | -94.27718 | 38060 ft | 497 kts | 255° |
| 2026-05-04 23:31 | 43.43037 | -94.35364 | 38052 ft | 498 kts | 255° |
| 2026-05-04 23:32 | 43.41207 | -94.44537 | 38050 ft | 497 kts | 255° |
| 2026-05-04 23:32 | 43.39366 | -94.53713 | 38060 ft | 498 kts | 255° |
| 2026-05-04 23:33 | 43.37516 | -94.62890 | 38048 ft | 497 kts | 255° |
| 2026-05-04 23:33 | 43.35660 | -94.72049 | 38055 ft | 497 kts | 255° |
| 2026-05-04 23:34 | 43.33795 | -94.81216 | 38057 ft | 498 kts | 255° |
| 2026-05-04 23:34 | 43.31935 | -94.90315 | 38047 ft | 497 kts | 255° |
| 2026-05-04 23:35 | 43.30059 | -94.99451 | 38060 ft | 497 kts | 255° |
| 2026-05-04 23:35 | 43.28170 | -95.08608 | 38051 ft | 497 kts | 254° |
| 2026-05-04 23:36 | 43.26278 | -95.17744 | 38051 ft | 497 kts | 254° |
| 2026-05-04 23:36 | 43.24376 | -95.26880 | 38060 ft | 498 kts | 254° |
| 2026-05-04 23:37 | 43.22483 | -95.35939 | 38047 ft | 497 kts | 254° |
| 2026-05-04 23:37 | 43.20565 | -95.45074 | 38056 ft | 497 kts | 254° |
| 2026-05-04 23:38 | 43.18642 | -95.54194 | 38056 ft | 498 kts | 254° |
| 2026-05-04 23:38 | 43.16712 | -95.63304 | 38047 ft | 497 kts | 254° |
| 2026-05-04 23:39 | 43.14789 | -95.72345 | 38060 ft | 497 kts | 254° |
| 2026-05-04 23:39 | 43.12844 | -95.81447 | 38051 ft | 498 kts | 254° |
| 2026-05-04 23:40 | 43.10895 | -95.90531 | 38051 ft | 497 kts | 254° |
| 2026-05-04 23:40 | 43.08936 | -95.99622 | 38060 ft | 498 kts | 254° |
| 2026-05-04 23:41 | 43.06970 | -96.08705 | 38047 ft | 497 kts | 254° |
| 2026-05-04 23:41 | 43.05009 | -96.17725 | 38057 ft | 497 kts | 253° |
| 2026-05-04 23:42 | 43.03029 | -96.26797 | 38055 ft | 498 kts | 253° |
| 2026-05-04 23:42 | 43.01052 | -96.35815 | 38047 ft | 497 kts | 253° |
| 2026-05-04 23:43 | 42.99061 | -96.44859 | 38060 ft | 497 kts | 253° |
| 2026-05-04 23:43 | 42.97058 | -96.53917 | 38050 ft | 497 kts | 253° |
| 2026-05-04 23:44 | 42.95046 | -96.62979 | 38052 ft | 497 kts | 253° |
| 2026-05-04 23:44 | 42.93034 | -96.72005 | 38060 ft | 498 kts | 253° |
| 2026-05-04 23:45 | 42.91024 | -96.80984 | 38047 ft | 497 kts | 253° |
| 2026-05-04 23:45 | 42.88993 | -96.90016 | 38057 ft | 497 kts | 253° |
| 2026-05-04 23:46 | 42.86960 | -96.99024 | 38055 ft | 498 kts | 253° |
| 2026-05-04 23:46 | 42.84921 | -97.08019 | 38048 ft | 497 kts | 253° |
| 2026-05-04 23:47 | 42.82864 | -97.17054 | 38060 ft | 497 kts | 253° |
| 2026-05-04 23:47 | 42.80819 | -97.26004 | 38050 ft | 497 kts | 253° |
| 2026-05-04 23:48 | 42.78751 | -97.35015 | 38052 ft | 497 kts | 253° |
| 2026-05-04 23:48 | 42.76684 | -97.43989 | 38059 ft | 498 kts | 253° |
| 2026-05-04 23:49 | 42.74604 | -97.52976 | 38047 ft | 497 kts | 253° |
| 2026-05-04 23:49 | 42.72517 | -97.61961 | 38057 ft | 497 kts | 253° |
| 2026-05-04 23:50 | 42.70423 | -97.70940 | 38054 ft | 498 kts | 252° |
| 2026-05-04 23:50 | 42.68341 | -97.79833 | 38048 ft | 497 kts | 252° |
| 2026-05-04 23:51 | 42.66230 | -97.88810 | 38060 ft | 497 kts | 252° |
| 2026-05-04 23:51 | 42.64119 | -97.97755 | 38049 ft | 497 kts | 252° |
| 2026-05-04 23:52 | 42.61998 | -98.06705 | 38053 ft | 497 kts | 252° |
| 2026-05-04 23:52 | 42.59869 | -98.15655 | 38059 ft | 498 kts | 252° |
| 2026-05-04 23:53 | 42.57746 | -98.24541 | 38047 ft | 497 kts | 252° |
| 2026-05-04 23:53 | 42.55608 | -98.33458 | 38058 ft | 497 kts | 252° |
| 2026-05-04 23:54 | 42.53459 | -98.42383 | 38054 ft | 498 kts | 252° |
| 2026-05-04 23:54 | 42.51300 | -98.51321 | 38048 ft | 497 kts | 252° |
| 2026-05-04 23:55 | 42.49140 | -98.60222 | 38060 ft | 497 kts | 252° |
| 2026-05-04 23:56 | 42.45357 | -98.73298 | 38050 ft | 497 kts | 244° |
| 2026-05-04 23:56 | 42.42361 | -98.81683 | 38052 ft | 497 kts | 243° |
| 2026-05-04 23:57 | 42.39308 | -98.90056 | 38060 ft | 497 kts | 243° |
| 2026-05-04 23:57 | 42.36240 | -98.98474 | 38047 ft | 497 kts | 243° |
| 2026-05-04 23:58 | 42.33177 | -99.06874 | 38056 ft | 497 kts | 243° |
| 2026-05-04 23:58 | 42.30110 | -99.15266 | 38056 ft | 498 kts | 243° |
| 2026-05-04 23:59 | 42.27049 | -99.23618 | 38047 ft | 497 kts | 243° |
| 2026-05-04 23:59 | 42.23965 | -99.32007 | 38060 ft | 497 kts | 243° |
| 2026-05-05 00:00 | 42.20887 | -99.40357 | 38051 ft | 497 kts | 243° |
| 2026-05-05 00:00 | 42.17813 | -99.48672 | 38051 ft | 497 kts | 243° |
| 2026-05-05 00:01 | 42.14715 | -99.57025 | 38060 ft | 498 kts | 243° |
| 2026-05-05 00:01 | 42.11618 | -99.65352 | 38047 ft | 497 kts | 243° |
| 2026-05-05 00:02 | 42.08510 | -99.73684 | 38057 ft | 497 kts | 243° |
| 2026-05-05 00:02 | 42.05415 | -99.81958 | 38055 ft | 498 kts | 243° |
| 2026-05-05 00:03 | 42.02293 | -99.90278 | 38047 ft | 497 kts | 243° |
| 2026-05-05 00:03 | 41.99165 | -99.98591 | 38060 ft | 497 kts | 243° |
| 2026-05-05 00:04 | 41.96039 | -100.06876 | 38050 ft | 498 kts | 243° |
| 2026-05-05 00:04 | 41.92904 | -100.15160 | 38052 ft | 497 kts | 243° |
| 2026-05-05 00:05 | 41.89760 | -100.23441 | 38060 ft | 498 kts | 242° |
| 2026-05-05 00:05 | 41.86629 | -100.31668 | 38047 ft | 497 kts | 242° |
| 2026-05-05 00:06 | 41.83477 | -100.39925 | 38057 ft | 497 kts | 242° |
| 2026-05-05 00:06 | 41.80313 | -100.48191 | 38055 ft | 498 kts | 242° |
| 2026-05-05 00:07 | 41.77148 | -100.56435 | 38047 ft | 497 kts | 242° |
| 2026-05-05 00:07 | 41.73971 | -100.64685 | 38060 ft | 497 kts | 242° |
| 2026-05-05 00:08 | 41.70794 | -100.72915 | 38050 ft | 498 kts | 242° |
| 2026-05-05 00:08 | 41.67612 | -100.81131 | 38052 ft | 497 kts | 242° |
| 2026-05-05 00:09 | 41.64441 | -100.89299 | 38060 ft | 498 kts | 242° |
| 2026-05-05 00:09 | 41.61240 | -100.97518 | 38047 ft | 497 kts | 242° |
| 2026-05-05 00:10 | 41.58036 | -101.05724 | 38057 ft | 497 kts | 242° |
| 2026-05-05 00:10 | 41.54845 | -101.13872 | 38055 ft | 498 kts | 242° |
| 2026-05-05 00:11 | 41.51639 | -101.22038 | 38047 ft | 497 kts | 242° |
| 2026-05-05 00:11 | 41.48417 | -101.30218 | 38060 ft | 497 kts | 242° |
| 2026-05-05 00:12 | 41.45192 | -101.38387 | 38050 ft | 498 kts | 242° |
| 2026-05-05 00:12 | 41.41963 | -101.46539 | 38052 ft | 497 kts | 242° |
| 2026-05-05 00:13 | 41.38723 | -101.54700 | 38060 ft | 498 kts | 242° |
| 2026-05-05 00:13 | 41.35481 | -101.62842 | 38047 ft | 497 kts | 242° |
| 2026-05-05 00:14 | 41.32257 | -101.70916 | 38057 ft | 497 kts | 242° |
| 2026-05-05 00:14 | 41.29005 | -101.79040 | 38055 ft | 498 kts | 242° |
| 2026-05-05 00:15 | 41.25747 | -101.87154 | 38047 ft | 497 kts | 241° |
| 2026-05-05 00:15 | 41.22487 | -101.95252 | 38060 ft | 497 kts | 241° |
| 2026-05-05 00:16 | 41.19206 | -102.03379 | 38050 ft | 498 kts | 241° |
| 2026-05-05 00:16 | 41.15954 | -102.11414 | 38052 ft | 497 kts | 241° |
| 2026-05-05 00:17 | 41.12672 | -102.19499 | 38060 ft | 498 kts | 241° |
| 2026-05-05 00:17 | 41.09384 | -102.27577 | 38047 ft | 497 kts | 241° |
| 2026-05-05 00:18 | 41.06090 | -102.35650 | 38057 ft | 497 kts | 241° |
| 2026-05-05 00:18 | 41.02787 | -102.43722 | 38055 ft | 498 kts | 241° |
| 2026-05-05 00:19 | 40.99484 | -102.51771 | 38047 ft | 497 kts | 241° |
| 2026-05-05 00:19 | 40.96177 | -102.59807 | 38060 ft | 497 kts | 241° |
| 2026-05-05 00:20 | 40.93421 | -102.66491 | 38053 ft | 498 kts | 241° |
| 2026-05-05 00:20 | 40.89561 | -102.75824 | 38052 ft | 497 kts | 241° |
| 2026-05-05 00:21 | 40.86791 | -102.82503 | 38060 ft | 497 kts | 241° |
| 2026-05-05 00:21 | 40.83459 | -102.90519 | 38048 ft | 497 kts | 240° |
| 2026-05-05 00:22 | 40.80120 | -102.98531 | 38054 ft | 497 kts | 240° |
| 2026-05-05 00:22 | 40.76774 | -103.06538 | 38058 ft | 498 kts | 240° |
| 2026-05-05 00:23 | 40.73427 | -103.14526 | 38047 ft | 497 kts | 240° |
| 2026-05-05 00:23 | 40.70099 | -103.22449 | 38058 ft | 497 kts | 240° |
| 2026-05-05 00:24 | 40.66741 | -103.30420 | 38053 ft | 498 kts | 240° |
| 2026-05-05 00:24 | 40.63374 | -103.38393 | 38049 ft | 497 kts | 240° |
| 2026-05-05 00:25 | 40.60000 | -103.46361 | 38060 ft | 498 kts | 240° |
| 2026-05-05 00:25 | 40.56622 | -103.54317 | 38049 ft | 497 kts | 240° |
| 2026-05-05 00:26 | 40.53245 | -103.62250 | 38054 ft | 497 kts | 240° |
| 2026-05-05 00:26 | 40.49891 | -103.70109 | 38058 ft | 498 kts | 240° |
| 2026-05-05 00:27 | 40.46484 | -103.78069 | 38047 ft | 497 kts | 240° |
| 2026-05-05 00:27 | 40.43088 | -103.85987 | 38058 ft | 497 kts | 240° |
| 2026-05-05 00:28 | 40.39680 | -103.93909 | 38056 ft | 498 kts | 240° |
| 2026-05-05 00:28 | 40.36277 | -104.01801 | 38047 ft | 497 kts | 240° |
| 2026-05-05 00:29 | 40.32860 | -104.09703 | 38060 ft | 497 kts | 240° |
| 2026-05-05 00:29 | 40.29467 | -104.17532 | 38051 ft | 497 kts | 240° |
| 2026-05-05 00:30 | 40.26040 | -104.25418 | 38052 ft | 497 kts | 240° |
| 2026-05-05 00:30 | 40.22608 | -104.33294 | 38060 ft | 497 kts | 240° |
| 2026-05-05 00:31 | 40.19188 | -104.41122 | 38047 ft | 497 kts | 240° |
| 2026-05-05 00:31 | 40.15750 | -104.48972 | 38056 ft | 497 kts | 240° |
| 2026-05-05 00:32 | 40.12308 | -104.56813 | 38056 ft | 498 kts | 239° |
| 2026-05-05 00:32 | 40.08849 | -104.64670 | 38047 ft | 497 kts | 239° |
| 2026-05-05 00:33 | 40.05430 | -104.72463 | 38057 ft | 498 kts | 242° |
| 2026-05-05 00:33 | 40.02565 | -104.80680 | 38054 ft | 497 kts | 248° |
| 2026-05-05 00:34 | 40.00025 | -104.89070 | 38047 ft | 497 kts | 249° |
| 2026-05-05 00:34 | 39.97574 | -104.97516 | 38060 ft | 497 kts | 250° |
| 2026-05-05 00:35 | 39.95126 | -105.05980 | 38051 ft | 497 kts | 250° |
| 2026-05-05 00:35 | 39.92689 | -105.14363 | 38052 ft | 497 kts | 249° |
| 2026-05-05 00:36 | 39.90263 | -105.22813 | 38061 ft | 498 kts | 250° |
| 2026-05-05 00:36 | 39.88026 | -105.31351 | 38047 ft | 497 kts | 252° |
| 2026-05-05 00:37 | 39.85880 | -105.39868 | 38056 ft | 497 kts | 252° |
| 2026-05-05 00:37 | 39.83739 | -105.48442 | 38056 ft | 498 kts | 252° |
| 2026-05-05 00:38 | 39.81598 | -105.57000 | 38047 ft | 497 kts | 252° |
| 2026-05-05 00:38 | 39.79449 | -105.65550 | 38060 ft | 497 kts | 252° |
| 2026-05-05 00:39 | 39.77290 | -105.74106 | 38051 ft | 498 kts | 252° |
| 2026-05-05 00:39 | 39.75125 | -105.82660 | 38051 ft | 497 kts | 252° |
| 2026-05-05 00:40 | 39.72957 | -105.91192 | 38060 ft | 498 kts | 252° |
| 2026-05-05 00:40 | 39.70779 | -105.99732 | 38047 ft | 497 kts | 252° |
| 2026-05-05 00:41 | 39.68602 | -106.08242 | 38056 ft | 497 kts | 252° |
| 2026-05-05 00:41 | 39.66426 | -106.16716 | 38056 ft | 498 kts | 252° |
| 2026-05-05 00:42 | 39.64229 | -106.25242 | 38047 ft | 497 kts | 251° |
| 2026-05-05 00:42 | 39.61997 | -106.33730 | 38060 ft | 497 kts | 251° |
| 2026-05-05 00:43 | 39.59696 | -106.42204 | 38050 ft | 497 kts | 251° |
| 2026-05-05 00:43 | 39.57380 | -106.50661 | 38052 ft | 497 kts | 250° |
| 2026-05-05 00:44 | 39.55058 | -106.59113 | 38059 ft | 498 kts | 250° |
| 2026-05-05 00:44 | 39.52749 | -106.67495 | 38047 ft | 497 kts | 250° |
| 2026-05-05 00:45 | 39.50420 | -106.75920 | 38057 ft | 497 kts | 250° |
| 2026-05-05 00:45 | 39.48083 | -106.84351 | 38055 ft | 498 kts | 250° |
| 2026-05-05 00:46 | 39.45737 | -106.92785 | 38048 ft | 497 kts | 250° |
| 2026-05-05 00:46 | 39.43389 | -107.01196 | 38060 ft | 497 kts | 250° |
| 2026-05-05 00:47 | 39.41030 | -107.09621 | 38050 ft | 498 kts | 250° |
| 2026-05-05 00:47 | 39.38665 | -107.18035 | 38052 ft | 497 kts | 249° |
| 2026-05-05 00:48 | 39.35883 | -107.26211 | 38060 ft | 497 kts | 244° |
| 2026-05-05 00:48 | 39.32845 | -107.34254 | 38046 ft | 497 kts | 243° |
| 2026-05-05 00:49 | 39.29807 | -107.42274 | 38059 ft | 497 kts | 244° |
| 2026-05-05 00:49 | 39.26780 | -107.50311 | 38052 ft | 498 kts | 244° |
| 2026-05-05 00:50 | 39.23776 | -107.58295 | 38049 ft | 497 kts | 244° |
| 2026-05-05 00:50 | 39.20751 | -107.66315 | 38060 ft | 497 kts | 244° |
| 2026-05-05 00:51 | 39.17719 | -107.74331 | 38048 ft | 497 kts | 244° |
| 2026-05-05 00:51 | 39.14679 | -107.82345 | 38055 ft | 497 kts | 243° |
| 2026-05-05 00:52 | 39.11632 | -107.90360 | 38058 ft | 498 kts | 243° |
| 2026-05-05 00:52 | 39.08581 | -107.98360 | 38047 ft | 497 kts | 243° |
| 2026-05-05 00:53 | 39.05527 | -108.06349 | 38059 ft | 497 kts | 243° |
| 2026-05-05 00:53 | 39.02467 | -108.14332 | 38053 ft | 498 kts | 243° |
| 2026-05-05 00:54 | 38.99421 | -108.22259 | 38049 ft | 497 kts | 243° |
| 2026-05-05 00:54 | 38.96353 | -108.30220 | 38060 ft | 497 kts | 243° |
| 2026-05-05 00:55 | 38.93273 | -108.38191 | 38048 ft | 497 kts | 243° |
| 2026-05-05 00:55 | 38.90195 | -108.46139 | 38054 ft | 497 kts | 243° |
| 2026-05-05 00:56 | 38.87122 | -108.54095 | 38058 ft | 498 kts | 243° |
| 2026-05-05 00:56 | 38.84056 | -108.62064 | 38047 ft | 497 kts | 243° |
| 2026-05-05 00:57 | 38.80995 | -108.70011 | 38059 ft | 497 kts | 243° |
| 2026-05-05 00:57 | 38.77921 | -108.77965 | 38052 ft | 498 kts | 243° |
| 2026-05-05 00:58 | 38.74841 | -108.85915 | 38050 ft | 497 kts | 243° |
| 2026-05-05 00:58 | 38.71761 | -108.93845 | 38060 ft | 497 kts | 243° |
| 2026-05-05 00:59 | 38.68668 | -109.01785 | 38048 ft | 497 kts | 243° |
| 2026-05-05 00:59 | 38.65599 | -109.09645 | 38055 ft | 497 kts | 243° |
| 2026-05-05 01:00 | 38.62498 | -109.17564 | 38058 ft | 498 kts | 243° |
| 2026-05-05 01:00 | 38.59388 | -109.25490 | 38047 ft | 497 kts | 243° |
| 2026-05-05 01:01 | 38.56282 | -109.33380 | 38059 ft | 497 kts | 243° |
| 2026-05-05 01:01 | 38.53166 | -109.41279 | 38052 ft | 497 kts | 243° |
| 2026-05-05 01:02 | 38.50066 | -109.49116 | 38049 ft | 497 kts | 243° |
| 2026-05-05 01:02 | 38.46940 | -109.56999 | 38060 ft | 498 kts | 243° |
| 2026-05-05 01:03 | 38.43811 | -109.64870 | 38048 ft | 497 kts | 243° |
| 2026-05-05 01:03 | 38.40685 | -109.72711 | 38055 ft | 497 kts | 243° |
| 2026-05-05 01:04 | 38.37530 | -109.80607 | 38058 ft | 498 kts | 243° |
| 2026-05-05 01:04 | 38.32822 | -109.92352 | 38052 ft | 497 kts | 243° |
| 2026-05-05 01:05 | 38.29684 | -110.00215 | 38061 ft | 497 kts | 244° |
| 2026-05-05 01:05 | 38.26778 | -110.08199 | 38046 ft | 497 kts | 246° |
| 2026-05-05 01:06 | 38.23967 | -110.16237 | 38056 ft | 497 kts | 246° |
| 2026-05-05 01:06 | 38.21645 | -110.22934 | 38059 ft | 498 kts | 246° |
| 2026-05-05 01:07 | 38.18846 | -110.30992 | 38047 ft | 497 kts | 246° |
| 2026-05-05 01:07 | 38.15589 | -110.40336 | 38060 ft | 497 kts | 246° |
| 2026-05-05 01:08 | 38.13236 | -110.47067 | 38054 ft | 498 kts | 246° |
| 2026-05-05 01:08 | 38.10438 | -110.55050 | 38048 ft | 497 kts | 246° |
| 2026-05-05 01:09 | 38.07619 | -110.63069 | 38060 ft | 498 kts | 246° |
| 2026-05-05 01:09 | 38.04787 | -110.71104 | 38049 ft | 497 kts | 246° |
| 2026-05-05 01:10 | 38.01955 | -110.79121 | 38053 ft | 497 kts | 246° |
| 2026-05-05 01:10 | 37.99121 | -110.87117 | 38059 ft | 498 kts | 246° |
| 2026-05-05 01:11 | 37.96275 | -110.95128 | 38047 ft | 497 kts | 246° |
| 2026-05-05 01:11 | 37.93431 | -111.03112 | 38058 ft | 497 kts | 246° |
| 2026-05-05 01:12 | 37.90597 | -111.11046 | 38054 ft | 498 kts | 246° |
| 2026-05-05 01:12 | 37.87739 | -111.19026 | 38048 ft | 497 kts | 246° |
| 2026-05-05 01:13 | 37.84876 | -111.27000 | 38060 ft | 498 kts | 246° |
| 2026-05-05 01:13 | 37.82008 | -111.34966 | 38049 ft | 497 kts | 245° |
| 2026-05-05 01:14 | 37.79132 | -111.42932 | 38053 ft | 497 kts | 245° |
| 2026-05-05 01:14 | 37.76254 | -111.50885 | 38059 ft | 497 kts | 245° |
| 2026-05-05 01:15 | 37.73366 | -111.58841 | 38047 ft | 497 kts | 245° |
| 2026-05-05 01:15 | 37.70499 | -111.66722 | 38058 ft | 497 kts | 245° |
| 2026-05-05 01:16 | 37.67588 | -111.74702 | 38053 ft | 497 kts | 245° |
| 2026-05-05 01:16 | 37.64708 | -111.82575 | 38049 ft | 497 kts | 245° |
| 2026-05-05 01:17 | 37.61800 | -111.90506 | 38060 ft | 497 kts | 245° |
| 2026-05-05 01:17 | 37.58889 | -111.98424 | 38049 ft | 497 kts | 245° |
| 2026-05-05 01:18 | 37.55971 | -112.06340 | 38054 ft | 497 kts | 245° |
| 2026-05-05 01:18 | 37.52955 | -112.14138 | 38055 ft | 497 kts | 240° |
| 2026-05-05 01:19 | 37.49267 | -112.21488 | 38047 ft | 497 kts | 236° |
| 2026-05-05 01:19 | 37.45432 | -112.28741 | 38054 ft | 497 kts | 236° |
| 2026-05-05 01:20 | 37.41620 | -112.36008 | 38058 ft | 497 kts | 236° |
| 2026-05-05 01:20 | 37.37824 | -112.43288 | 38047 ft | 497 kts | 236° |
| 2026-05-05 01:21 | 37.34033 | -112.50562 | 38058 ft | 497 kts | 236° |
| 2026-05-05 01:21 | 37.30264 | -112.57780 | 38053 ft | 497 kts | 236° |
| 2026-05-05 01:22 | 37.26460 | -112.65047 | 38049 ft | 497 kts | 236° |
| 2026-05-05 01:22 | 37.22648 | -112.72306 | 37503 ft | 499 kts | 236° |
| 2026-05-05 01:23 | 37.20739 | -112.75939 | 36917 ft | 497 kts | 236° |
| 2026-05-05 01:23 | 37.18846 | -112.79540 | 36308 ft | 494 kts | 236° |
| 2026-05-05 01:23 | 37.16954 | -112.83134 | 35695 ft | 491 kts | 236° |
| 2026-05-05 01:23 | 37.15071 | -112.86705 | 35083 ft | 489 kts | 236° |
| 2026-05-05 01:24 | 37.13198 | -112.90256 | 34474 ft | 486 kts | 236° |
| 2026-05-05 01:24 | 37.11353 | -112.93748 | 33873 ft | 486 kts | 236° |
| 2026-05-05 01:24 | 37.09455 | -112.97336 | 33259 ft | 491 kts | 236° |
| 2026-05-05 01:24 | 37.07574 | -113.00888 | 32650 ft | 498 kts | 236° |
| 2026-05-05 01:25 | 37.05647 | -113.04520 | 32022 ft | 501 kts | 236° |
| 2026-05-05 01:25 | 37.03725 | -113.08140 | 31390 ft | 498 kts | 236° |
| 2026-05-05 01:25 | 37.01809 | -113.11746 | 30761 ft | 493 kts | 236° |
| 2026-05-05 01:25 | 36.99919 | -113.15300 | 30144 ft | 487 kts | 236° |
| 2026-05-05 01:26 | 36.98052 | -113.18809 | 29535 ft | 481 kts | 236° |
| 2026-05-05 01:26 | 36.96207 | -113.22271 | 28933 ft | 475 kts | 236° |
| 2026-05-05 01:26 | 36.94382 | -113.25694 | 28340 ft | 468 kts | 236° |
| 2026-05-05 01:26 | 36.92604 | -113.29024 | 27763 ft | 462 kts | 236° |
| 2026-05-05 01:27 | 36.90824 | -113.32357 | 27186 ft | 457 kts | 236° |
| 2026-05-05 01:27 | 36.89075 | -113.35628 | 26620 ft | 452 kts | 236° |
| 2026-05-05 01:27 | 36.87337 | -113.38874 | 26058 ft | 447 kts | 236° |
| 2026-05-05 01:27 | 36.85617 | -113.42085 | 25501 ft | 442 kts | 236° |
| 2026-05-05 01:28 | 36.83913 | -113.45260 | 24950 ft | 438 kts | 236° |
| 2026-05-05 01:28 | 36.82226 | -113.48403 | 24399 ft | 434 kts | 236° |
| 2026-05-05 01:28 | 36.80571 | -113.51485 | 23857 ft | 430 kts | 236° |
| 2026-05-05 01:28 | 36.78897 | -113.54607 | 23323 ft | 426 kts | 236° |
| 2026-05-05 01:29 | 36.77260 | -113.57662 | 22803 ft | 422 kts | 236° |
| 2026-05-05 01:29 | 36.75635 | -113.60690 | 22290 ft | 418 kts | 236° |
| 2026-05-05 01:29 | 36.74041 | -113.63658 | 21787 ft | 415 kts | 236° |
| 2026-05-05 01:29 | 36.72447 | -113.66623 | 21201 ft | 409 kts | 236° |
| 2026-05-05 01:30 | 36.70887 | -113.69521 | 20737 ft | 394 kts | 236° |
| 2026-05-05 01:30 | 36.69384 | -113.72315 | 20270 ft | 381 kts | 236° |
| 2026-05-05 01:30 | 36.67930 | -113.75017 | 19825 ft | 369 kts | 236° |
| 2026-05-05 01:30 | 36.66521 | -113.77633 | 19399 ft | 358 kts | 236° |
| 2026-05-05 01:31 | 36.65162 | -113.80154 | 18987 ft | 351 kts | 236° |
| 2026-05-05 01:31 | 36.63791 | -113.82693 | 18568 ft | 349 kts | 236° |
| 2026-05-05 01:31 | 36.62434 | -113.85204 | 18252 ft | 357 kts | 236° |
| 2026-05-05 01:31 | 36.61030 | -113.87800 | 17736 ft | 365 kts | 236° |
| 2026-05-05 01:32 | 36.59609 | -113.90424 | 17322 ft | 364 kts | 236° |
| 2026-05-05 01:32 | 36.58145 | -113.92981 | 16851 ft | 362 kts | 233° |
| 2026-05-05 01:32 | 36.56623 | -113.95471 | 16393 ft | 361 kts | 232° |
| 2026-05-05 01:32 | 36.55094 | -113.97932 | 16058 ft | 356 kts | 232° |
| 2026-05-05 01:33 | 36.53617 | -114.00302 | 15834 ft | 347 kts | 232° |
| 2026-05-05 01:33 | 36.52135 | -114.02682 | 15622 ft | 339 kts | 232° |
| 2026-05-05 01:33 | 36.50725 | -114.04949 | 15417 ft | 331 kts | 232° |
| 2026-05-05 01:33 | 36.49320 | -114.07209 | 15212 ft | 323 kts | 232° |
| 2026-05-05 01:34 | 36.47963 | -114.09391 | 15012 ft | 316 kts | 232° |
| 2026-05-05 01:34 | 36.46634 | -114.11529 | 14817 ft | 309 kts | 232° |
| 2026-05-05 01:34 | 36.45335 | -114.13617 | 14629 ft | 307 kts | 232° |
| 2026-05-05 01:34 | 36.44024 | -114.15722 | 14438 ft | 309 kts | 232° |
| 2026-05-05 01:35 | 36.42699 | -114.17847 | 14239 ft | 312 kts | 232° |
| 2026-05-05 01:35 | 36.41367 | -114.19985 | 14030 ft | 312 kts | 232° |
| 2026-05-05 01:35 | 36.40043 | -114.22106 | 13935 ft | 308 kts | 232° |
| 2026-05-05 01:35 | 36.38723 | -114.24201 | 13737 ft | 310 kts | 232° |
| 2026-05-05 01:36 | 36.37384 | -114.26315 | 13458 ft | 312 kts | 232° |
| 2026-05-05 01:36 | 36.36046 | -114.28422 | 13171 ft | 310 kts | 232° |
| 2026-05-05 01:36 | 36.34723 | -114.30501 | 12955 ft | 303 kts | 232° |
| 2026-05-05 01:36 | 36.33428 | -114.32533 | 12739 ft | 299 kts | 232° |
| 2026-05-05 01:37 | 36.32159 | -114.34522 | 12506 ft | 296 kts | 232° |
| 2026-05-05 01:37 | 36.30888 | -114.36513 | 12255 ft | 293 kts | 231° |
| 2026-05-05 01:37 | 36.29634 | -114.38476 | 11997 ft | 289 kts | 231° |
| 2026-05-05 01:37 | 36.28389 | -114.40425 | 11736 ft | 286 kts | 231° |
| 2026-05-05 01:38 | 36.27155 | -114.42354 | 11475 ft | 284 kts | 231° |
| 2026-05-05 01:38 | 36.25927 | -114.44272 | 11215 ft | 285 kts | 231° |
| 2026-05-05 01:38 | 36.24688 | -114.46186 | 10947 ft | 286 kts | 231° |
| 2026-05-05 01:38 | 36.23435 | -114.48108 | 10664 ft | 286 kts | 231° |
| 2026-05-05 01:39 | 36.22198 | -114.50003 | 10390 ft | 285 kts | 231° |
| 2026-05-05 01:39 | 36.20957 | -114.51902 | 10133 ft | 282 kts | 231° |
| 2026-05-05 01:39 | 36.19730 | -114.53781 | 9891 ft | 279 kts | 231° |
| 2026-05-05 01:39 | 36.18513 | -114.55644 | 9625 ft | 278 kts | 231° |
| 2026-05-05 01:40 | 36.17290 | -114.57515 | 9372 ft | 278 kts | 231° |
| 2026-05-05 01:40 | 36.16080 | -114.59368 | 9250 ft | 274 kts | 231° |
| 2026-05-05 01:40 | 36.14887 | -114.61191 | 9078 ft | 272 kts | 231° |
| 2026-05-05 01:40 | 36.13703 | -114.62999 | 8861 ft | 269 kts | 231° |
| 2026-05-05 01:41 | 36.12533 | -114.64786 | 8676 ft | 265 kts | 231° |
| 2026-05-05 01:41 | 36.11388 | -114.66534 | 8511 ft | 260 kts | 231° |
| 2026-05-05 01:41 | 36.10254 | -114.68264 | 8353 ft | 256 kts | 231° |
| 2026-05-05 01:41 | 36.09142 | -114.69959 | 8248 ft | 250 kts | 231° |
| 2026-05-05 01:42 | 36.08090 | -114.71626 | 8214 ft | 243 kts | 236° |
| 2026-05-05 01:42 | 36.07428 | -114.73481 | 8173 ft | 237 kts | 253° |
| 2026-05-05 01:42 | 36.07172 | -114.75480 | 8038 ft | 237 kts | 266° |
| 2026-05-05 01:42 | 36.07182 | -114.77553 | 7749 ft | 244 kts | 272° |
| 2026-05-05 01:43 | 36.07286 | -114.79679 | 7375 ft | 251 kts | 274° |
| 2026-05-05 01:43 | 36.07379 | -114.81843 | 7003 ft | 252 kts | 272° |
| 2026-05-05 01:43 | 36.07428 | -114.83999 | 6658 ft | 251 kts | 271° |
| 2026-05-05 01:43 | 36.07430 | -114.86082 | 6337 ft | 250 kts | 269° |
| 2026-05-05 01:44 | 36.07396 | -114.88224 | 6007 ft | 249 kts | 268° |
| 2026-05-05 01:44 | 36.07363 | -114.90358 | 5678 ft | 246 kts | 269° |
| 2026-05-05 01:44 | 36.07356 | -114.92408 | 5354 ft | 229 kts | 270° |
| 2026-05-05 01:44 | 36.07375 | -114.94289 | 5080 ft | 208 kts | 271° |
| 2026-05-05 01:45 | 36.07395 | -114.95999 | 4810 ft | 193 kts | 271° |
| 2026-05-05 01:45 | 36.07400 | -114.97604 | 4543 ft | 182 kts | 270° |
| 2026-05-05 01:45 | 36.07382 | -114.99142 | 4300 ft | 174 kts | 269° |
| 2026-05-05 01:45 | 36.07365 | -115.00604 | 4079 ft | 166 kts | 269° |
| 2026-05-05 01:46 | 36.07363 | -115.02028 | 3887 ft | 165 kts | 270° |
| 2026-05-05 01:46 | 36.07375 | -115.03446 | 3659 ft | 164 kts | 270° |
| 2026-05-05 01:46 | 36.07384 | -115.04852 | 3437 ft | 163 kts | 270° |
| 2026-05-05 01:46 | 36.07380 | -115.06235 | 3222 ft | 162 kts | 270° |
| 2026-05-05 01:47 | 36.07370 | -115.07629 | 3006 ft | 162 kts | 269° |
| 2026-05-05 01:47 | 36.07365 | -115.09006 | 2793 ft | 161 kts | 270° |
| 2026-05-05 01:47 | 36.07366 | -115.10403 | 2577 ft | 161 kts | 270° |
| 2026-05-05 01:47 | 36.07369 | -115.11790 | 2355 ft | 161 kts | 270° |
| 2026-05-05 01:48 | 36.07374 | -115.13111 | 2195 ft | 123 kts | 270° |
| 2026-05-05 01:48 | 36.07373 | -115.13809 | 2194 ft | 38 kts | 269° |
| 2026-05-05 01:48 | 36.07372 | -115.13903 | 2194 ft | 10 kts | 269° |
| 2026-05-05 01:48 | 36.07371 | -115.14103 | 2194 ft | 32 kts | 269° |
| 2026-05-05 01:49 | 36.07395 | -115.14398 | 2194 ft | 31 kts | 289° |
| 2026-05-05 01:49 | 36.07488 | -115.14616 | 2194 ft | 24 kts | 314° |
| 2026-05-05 01:49 | 36.07537 | -115.14646 | 2194 ft | 6 kts | 351° |
| 2026-05-05 01:49 | 36.07567 | -115.14650 | 2194 ft | 3 kts | 356° |
| 2026-05-05 01:50 | 36.07581 | -115.14651 | 2194 ft | 5 kts | 356° |
| 2026-05-05 01:50 | 36.07654 | -115.14654 | 2194 ft | 16 kts | 359° |
| 2026-05-05 01:50 | 36.07762 | -115.14584 | 2194 ft | 22 kts | 77° |
| 2026-05-05 01:50 | 36.07758 | -115.14361 | 2194 ft | 25 kts | 94° |
| 2026-05-05 01:51 | 36.07841 | -115.14204 | 2194 ft | 21 kts | 40° |
| 2026-05-05 01:51 | 36.07947 | -115.14117 | 2194 ft | 16 kts | 37° |
| 2026-05-05 01:51 | 36.07989 | -115.14050 | 2194 ft | 0 kts | 57° |
| 2026-05-05 01:51 | 36.07990 | -115.14050 | 2194 ft | 0 kts | 57° |